createdAt,value
2022-12-09T00:01:07.141Z,-0.80
2022-12-09T00:03:35.342Z,-0.80
2022-12-09T00:06:11.484Z,-0.80
2022-12-09T00:08:38.906Z,-0.80
2022-12-09T00:11:06.829Z,-0.80
2022-12-09T00:13:34.728Z,-0.80
2022-12-09T00:16:06.735Z,-0.80
2022-12-09T00:18:34.867Z,-0.90
2022-12-09T00:21:20.480Z,-0.80
2022-12-09T00:23:48.665Z,-0.90
2022-12-09T00:26:17.347Z,-0.90
2022-12-09T00:28:45.042Z,-0.90
2022-12-09T00:31:24.112Z,-0.90
2022-12-09T00:33:52.696Z,-0.90
2022-12-09T00:36:22.053Z,-0.90
2022-12-09T00:38:50.193Z,-0.90
2022-12-09T00:41:18.644Z,-0.90
2022-12-09T00:43:46.364Z,-0.90
2022-12-09T00:46:14.113Z,-0.90
2022-12-09T00:48:42.170Z,-0.90
2022-12-09T00:51:13.107Z,-1.00
2022-12-09T00:53:40.635Z,-1.00
2022-12-09T00:56:08.608Z,-1.00
2022-12-09T00:58:36.326Z,-1.10
2022-12-09T01:01:04.206Z,-1.10
2022-12-09T01:03:31.916Z,-1.10
2022-12-09T01:05:59.930Z,-1.10
2022-12-09T01:08:27.488Z,-1.20
2022-12-09T01:10:55.087Z,-1.10
2022-12-09T01:13:22.474Z,-1.10
2022-12-09T01:15:50.121Z,-1.10
2022-12-09T01:18:17.839Z,-1.10
2022-12-09T01:20:45.185Z,-1.10
2022-12-09T01:23:12.662Z,-1.10
2022-12-09T01:25:40.103Z,-1.10
2022-12-09T01:28:07.415Z,-1.10
2022-12-09T01:30:34.921Z,-1.10
2022-12-09T01:33:02.307Z,-1.10
2022-12-09T01:35:30.012Z,-1.10
2022-12-09T01:37:57.386Z,-1.00
2022-12-09T01:40:24.748Z,-1.00
2022-12-09T01:42:52.175Z,-1.00
2022-12-09T01:45:22.500Z,-1.00
2022-12-09T01:47:54.354Z,-1.00
2022-12-09T01:50:22.020Z,-1.00
2022-12-09T01:52:50.563Z,-1.00
2022-12-09T01:55:18.584Z,-1.00
2022-12-09T01:57:47.217Z,-1.00
2022-12-09T02:00:15.692Z,-1.00
2022-12-09T02:02:45.671Z,-1.00
2022-12-09T02:05:13.342Z,-1.00
2022-12-09T02:07:40.837Z,-0.90
2022-12-09T02:10:15.267Z,-1.00
2022-12-09T02:12:45.690Z,-1.00
2022-12-09T02:15:21.967Z,-1.00
2022-12-09T02:17:59.281Z,-1.00
2022-12-09T02:20:42.828Z,-1.00
2022-12-09T02:23:36.632Z,-1.00
2022-12-09T02:26:18.093Z,-1.00
2022-12-09T02:29:06.833Z,-1.00
2022-12-09T02:32:00.539Z,-1.00
2022-12-09T02:34:32.337Z,-1.00
2022-12-09T02:37:14.571Z,-1.00
2022-12-09T02:39:57.269Z,-1.00
2022-12-09T02:42:28.906Z,-1.00
2022-12-09T02:44:58.937Z,-1.00
2022-12-09T02:47:30.114Z,-1.00
2022-12-09T02:50:02.285Z,-1.00
2022-12-09T02:52:32.120Z,-1.00
2022-12-09T02:55:02.156Z,-1.00
2022-12-09T02:57:30.910Z,-1.00
2022-12-09T02:59:58.430Z,-1.00
2022-12-09T03:02:55.029Z,-1.00
2022-12-09T03:05:45.769Z,-1.00
2022-12-09T03:08:37.082Z,-1.00
2022-12-09T03:11:12.062Z,-1.00
2022-12-09T03:13:57.152Z,-1.00
2022-12-09T03:16:37.957Z,-1.00
2022-12-09T03:19:47.879Z,-1.00
2022-12-09T03:22:20.279Z,-1.00
2022-12-09T03:24:53.112Z,-1.00
2022-12-09T03:27:26.206Z,-1.00
2022-12-09T03:29:56.143Z,-1.00
2022-12-09T03:32:26.823Z,-1.00
2022-12-09T03:35:02.130Z,-1.00
2022-12-09T03:37:31.020Z,-0.90
2022-12-09T03:39:59.930Z,-0.90
2022-12-09T03:42:34.532Z,-1.00
2022-12-09T03:45:05.539Z,-1.00
2022-12-09T03:47:33.324Z,-0.90
2022-12-09T03:50:00.906Z,-0.90
2022-12-09T03:52:48.426Z,-0.90
2022-12-09T03:55:23.207Z,-0.90
2022-12-09T03:57:54.496Z,-0.90
2022-12-09T04:00:21.934Z,-0.90
2022-12-09T04:02:49.936Z,-0.90
2022-12-09T04:05:17.852Z,-0.90
2022-12-09T04:07:45.174Z,-0.90
2022-12-09T04:10:13.105Z,-0.80
2022-12-09T04:12:40.980Z,-0.80
2022-12-09T04:15:10.445Z,-0.90
2022-12-09T04:17:38.436Z,-0.90
2022-12-09T04:20:07.512Z,-0.90
2022-12-09T04:22:35.377Z,-0.90
2022-12-09T04:25:02.992Z,-0.80
2022-12-09T04:27:30.341Z,-0.90
2022-12-09T04:29:57.964Z,-0.80
2022-12-09T04:32:25.340Z,-0.80
2022-12-09T04:34:52.605Z,-0.80
2022-12-09T04:37:20.255Z,-0.80
2022-12-09T04:39:47.939Z,-0.60
2022-12-09T04:42:15.674Z,-0.60
2022-12-09T04:44:43.000Z,-0.70
2022-12-09T04:47:10.572Z,-0.70
2022-12-09T04:49:38.285Z,-0.60
2022-12-09T04:52:06.069Z,-0.70
2022-12-09T04:54:34.038Z,-0.60
2022-12-09T04:57:01.702Z,-0.60
2022-12-09T04:59:31.712Z,-0.70
2022-12-09T05:01:59.372Z,-0.60
2022-12-09T05:04:27.182Z,-0.70
2022-12-09T05:06:55.040Z,-0.80
2022-12-09T05:09:22.585Z,-0.80
2022-12-09T05:11:52.533Z,-0.80
2022-12-09T05:14:20.286Z,-0.70
2022-12-09T05:16:47.666Z,-0.70
2022-12-09T05:19:15.249Z,-0.80
2022-12-09T05:21:44.052Z,-0.80
2022-12-09T05:24:11.817Z,-0.80
2022-12-09T05:26:39.482Z,-0.80
2022-12-09T05:29:07.049Z,-0.90
2022-12-09T05:31:34.866Z,-0.90
2022-12-09T05:34:02.553Z,-0.80
2022-12-09T05:36:30.441Z,-0.90
2022-12-09T05:38:58.035Z,-1.10
2022-12-09T05:41:25.995Z,-1.20
2022-12-09T05:43:54.055Z,-1.20
2022-12-09T05:46:22.395Z,-1.30
2022-12-09T05:48:50.748Z,-1.40
2022-12-09T05:51:27.129Z,-1.50
2022-12-09T05:53:56.005Z,-1.40
2022-12-09T05:56:25.334Z,-1.50
2022-12-09T05:58:54.133Z,-1.40
2022-12-09T06:01:22.152Z,-1.50
2022-12-09T06:03:51.038Z,-1.40
2022-12-09T06:06:20.779Z,-1.40
2022-12-09T06:08:49.351Z,-1.30
2022-12-09T06:11:19.769Z,-1.20
2022-12-09T06:13:48.413Z,-1.20
2022-12-09T06:16:19.694Z,-1.30
2022-12-09T06:18:48.520Z,-1.30
2022-12-09T06:21:18.348Z,-1.40
2022-12-09T06:23:46.312Z,-1.40
2022-12-09T06:26:31.963Z,-1.50
2022-12-09T06:29:00.026Z,-1.50
2022-12-09T06:31:29.236Z,-1.60
2022-12-09T06:33:58.711Z,-1.60
2022-12-09T06:36:28.395Z,-1.60
2022-12-09T06:38:57.733Z,-1.60
2022-12-09T06:41:26.462Z,-1.60
2022-12-09T06:43:57.148Z,-1.60
2022-12-09T06:46:26.107Z,-1.60
2022-12-09T06:48:55.076Z,-1.70
2022-12-09T06:51:23.847Z,-1.80
2022-12-09T06:53:52.078Z,-1.80
2022-12-09T06:56:20.321Z,-1.80
2022-12-09T06:58:48.439Z,-1.70
2022-12-09T07:01:25.235Z,-1.70
2022-12-09T07:03:56.221Z,-1.70
2022-12-09T07:06:36.446Z,-1.70
2022-12-09T07:09:13.295Z,-1.70
2022-12-09T07:11:46.543Z,-1.60
2022-12-09T07:14:16.292Z,-1.60
2022-12-09T07:16:43.804Z,-1.60
2022-12-09T07:19:20.169Z,-1.60
2022-12-09T07:21:48.620Z,-1.60
2022-12-09T07:24:18.629Z,-1.60
2022-12-09T07:26:46.997Z,-1.50
2022-12-09T07:29:14.648Z,-1.50
2022-12-09T07:31:42.346Z,-1.50
2022-12-09T07:34:11.794Z,-1.50
2022-12-09T07:36:39.445Z,-1.50
2022-12-09T07:39:15.362Z,-1.50
2022-12-09T07:41:43.435Z,-1.40
2022-12-09T07:44:12.043Z,-1.40
2022-12-09T07:46:40.926Z,-1.40
2022-12-09T07:49:08.556Z,-1.30
2022-12-09T07:51:36.300Z,-1.30
2022-12-09T07:54:04.243Z,-1.20
2022-12-09T07:56:31.655Z,-1.20
2022-12-09T07:58:59.453Z,-1.20
2022-12-09T08:01:30.220Z,-1.20
2022-12-09T08:03:58.236Z,-1.20
2022-12-09T08:06:28.493Z,-1.20
2022-12-09T08:08:59.634Z,-1.20
2022-12-09T08:11:29.368Z,-1.30
2022-12-09T08:13:58.948Z,-1.40
2022-12-09T08:16:26.664Z,-1.50
2022-12-09T08:18:55.517Z,-1.50
2022-12-09T08:21:31.264Z,-1.30
2022-12-09T08:24:00.791Z,-1.10
2022-12-09T08:26:30.697Z,-0.80
2022-12-09T08:28:58.918Z,-0.60
2022-12-09T08:31:28.431Z,-0.50
2022-12-09T08:33:56.823Z,-0.20
2022-12-09T08:36:28.475Z,-0.20
2022-12-09T08:38:58.753Z,-0.40
2022-12-09T08:41:36.356Z,-0.70
2022-12-09T08:44:13.801Z,-0.70
2022-12-09T08:46:43.769Z,-0.80
2022-12-09T08:49:11.864Z,-0.80
2022-12-09T08:51:40.421Z,-0.90
2022-12-09T08:54:28.168Z,-0.90
2022-12-09T08:56:56.969Z,-1.00
2022-12-09T08:59:25.325Z,-1.00
2022-12-09T09:01:53.023Z,-1.00
2022-12-09T09:04:23.249Z,-1.00
2022-12-09T09:06:52.612Z,-0.90
2022-12-09T09:09:22.330Z,-0.90
2022-12-09T09:11:50.438Z,-0.80
2022-12-09T09:14:18.277Z,-0.80
2022-12-09T09:16:46.627Z,-0.80
2022-12-09T09:19:17.568Z,-0.70
2022-12-09T09:21:45.199Z,-0.80
2022-12-09T09:24:16.132Z,-0.60
2022-12-09T09:26:44.276Z,-0.60
2022-12-09T09:29:12.902Z,-0.60
2022-12-09T09:31:41.028Z,-0.60
2022-12-09T09:34:09.216Z,-0.50
2022-12-09T09:36:37.058Z,-0.50
2022-12-09T09:39:05.334Z,-0.30
2022-12-09T09:41:54.494Z,-0.20
2022-12-09T09:44:42.685Z,0.00
2022-12-09T09:47:23.216Z,0.10
2022-12-09T09:49:58.986Z,0.20
2022-12-09T09:52:29.002Z,0.30
2022-12-09T09:54:57.847Z,0.20
2022-12-09T09:57:40.539Z,0.20
2022-12-09T10:00:34.396Z,0.60
2022-12-09T10:03:15.184Z,1.40
2022-12-09T10:05:56.518Z,1.90
2022-12-09T10:08:44.763Z,2.00
2022-12-09T10:11:23.472Z,2.20
2022-12-09T10:14:17.289Z,1.50
2022-12-09T10:17:21.455Z,1.00
2022-12-09T10:19:53.589Z,0.70
2022-12-09T10:22:28.954Z,1.40
2022-12-09T10:25:06.372Z,2.10
2022-12-09T10:27:59.665Z,1.90
2022-12-09T10:30:32.167Z,1.00
2022-12-09T10:33:04.131Z,0.40
2022-12-09T10:35:33.722Z,0.00
2022-12-09T10:38:10.546Z,-0.30
2022-12-09T10:40:53.695Z,-0.30
2022-12-09T10:43:44.709Z,-0.30
2022-12-09T10:46:20.552Z,-0.40
2022-12-09T10:48:49.218Z,-0.50
2022-12-09T10:51:32.768Z,-0.40
2022-12-09T10:54:25.719Z,-0.40
2022-12-09T10:57:08.286Z,-0.20
2022-12-09T10:59:36.767Z,0.20
2022-12-09T11:02:10.898Z,0.30
2022-12-09T11:04:44.188Z,0.00
2022-12-09T11:07:26.161Z,-0.10
2022-12-09T11:09:56.949Z,0.10
2022-12-09T11:12:30.851Z,-0.10
2022-12-09T11:15:01.341Z,0.00
2022-12-09T11:17:33.278Z,0.20
2022-12-09T11:20:07.584Z,-0.10
2022-12-09T11:22:41.421Z,-0.40
2022-12-09T11:25:12.781Z,-0.70
2022-12-09T11:27:42.054Z,-0.80
2022-12-09T11:30:17.107Z,-0.80
2022-12-09T11:33:06.026Z,-0.80
2022-12-09T11:35:37.357Z,-0.50
2022-12-09T11:38:30.294Z,0.00
2022-12-09T11:41:12.901Z,0.70
2022-12-09T11:43:56.634Z,1.40
2022-12-09T11:46:32.153Z,1.70
2022-12-09T11:49:02.991Z,1.10
2022-12-09T11:51:38.018Z,0.40
2022-12-09T11:54:16.863Z,-0.10
2022-12-09T11:56:44.541Z,-0.50
2022-12-09T11:59:18.340Z,-0.90
2022-12-09T12:01:52.771Z,-1.20
2022-12-09T12:04:36.333Z,-1.20
2022-12-09T12:07:18.320Z,-1.30
2022-12-09T12:09:54.079Z,-1.30
2022-12-09T12:12:39.403Z,-1.30
2022-12-09T12:15:32.600Z,-1.40
2022-12-09T12:18:02.643Z,-1.40
2022-12-09T12:20:53.770Z,-1.50
2022-12-09T12:23:32.472Z,-1.60
2022-12-09T12:26:14.792Z,-1.60
2022-12-09T12:28:41.956Z,-1.70
2022-12-09T12:31:37.051Z,-1.70
2022-12-09T12:34:24.976Z,-1.70
2022-12-09T12:37:38.129Z,-1.80
2022-12-09T12:40:22.043Z,-1.80
2022-12-09T12:43:30.829Z,-1.70
2022-12-09T12:46:17.983Z,-1.70
2022-12-09T12:49:05.189Z,-1.80
2022-12-09T12:51:44.571Z,-1.90
2022-12-09T12:54:38.431Z,-2.00
2022-12-09T12:57:30.000Z,-2.10
2022-12-09T13:00:25.768Z,-2.00
2022-12-09T13:03:24.849Z,-2.10
2022-12-09T13:05:54.996Z,-2.10
2022-12-09T13:08:35.965Z,-2.10
2022-12-09T13:11:23.996Z,-2.10
2022-12-09T13:14:11.101Z,-2.10
2022-12-09T13:16:42.724Z,-2.10
2022-12-09T13:19:28.852Z,-2.00
2022-12-09T13:21:56.671Z,-2.00
2022-12-09T13:24:40.647Z,-2.00
2022-12-09T13:27:39.763Z,-2.10
2022-12-09T13:30:13.828Z,-2.20
2022-12-09T13:32:56.661Z,-2.20
2022-12-09T13:35:45.246Z,-2.30
2022-12-09T13:38:28.261Z,-2.20
2022-12-09T13:40:55.661Z,-2.20
2022-12-09T13:43:27.785Z,-2.20
2022-12-09T13:46:00.651Z,-2.30
2022-12-09T13:48:31.087Z,-2.30
2022-12-09T13:51:00.527Z,-2.30
2022-12-09T13:53:45.622Z,-2.30
2022-12-09T13:56:24.564Z,-2.30
2022-12-09T13:59:10.357Z,-2.30
2022-12-09T14:01:51.987Z,-2.40
2022-12-09T14:04:28.676Z,-2.40
2022-12-09T14:06:59.315Z,-2.40
2022-12-09T14:09:38.420Z,-2.40
2022-12-09T14:12:13.043Z,-2.40
2022-12-09T14:14:55.797Z,-2.50
2022-12-09T14:17:25.965Z,-2.50
2022-12-09T14:20:22.370Z,-2.60
2022-12-09T14:23:08.254Z,-2.60
2022-12-09T14:25:35.578Z,-2.60
2022-12-09T14:28:24.652Z,-2.60
2022-12-09T14:30:53.744Z,-2.60
2022-12-09T14:33:25.366Z,-2.60
2022-12-09T14:35:58.073Z,-2.60
2022-12-09T14:42:03.805Z,-2.60
2022-12-09T14:44:34.142Z,-2.70
2022-12-09T14:47:30.223Z,-2.70
2022-12-09T14:50:09.034Z,-2.70
2022-12-09T14:52:36.782Z,-2.70
2022-12-09T14:55:09.413Z,-2.70
2022-12-09T14:57:45.335Z,-2.80
2022-12-09T15:00:28.497Z,-2.80
2022-12-09T15:03:31.393Z,-2.80
2022-12-09T15:06:05.336Z,-2.80
2022-12-09T15:08:36.684Z,-2.80
2022-12-09T15:11:26.412Z,-2.80
2022-12-09T15:13:56.104Z,-2.80
2022-12-09T15:16:26.546Z,-2.80
2022-12-09T15:18:55.326Z,-2.80
2022-12-09T15:21:30.848Z,-2.90
2022-12-09T15:23:59.861Z,-2.90
2022-12-09T15:26:33.777Z,-2.90
2022-12-09T15:29:05.361Z,-2.90
2022-12-09T15:31:34.510Z,-2.90
2022-12-09T15:34:17.009Z,-2.90
2022-12-09T15:36:55.539Z,-3.10
2022-12-09T15:39:40.266Z,-3.10
2022-12-09T15:42:13.171Z,-3.20
2022-12-09T15:44:47.140Z,-3.30
2022-12-09T15:47:19.649Z,-3.30
2022-12-09T15:49:55.024Z,-3.30
2022-12-09T15:52:27.596Z,-3.40
2022-12-09T15:54:56.558Z,-3.40
2022-12-09T15:57:24.983Z,-3.50
2022-12-09T15:59:56.251Z,-3.50
2022-12-09T16:02:28.464Z,-3.50
2022-12-09T16:05:00.845Z,-3.50
2022-12-09T16:07:28.528Z,-3.50
2022-12-09T16:10:08.157Z,-3.50
2022-12-09T16:12:36.593Z,-3.60
2022-12-09T16:15:06.865Z,-3.70
2022-12-09T16:17:52.117Z,-3.70
2022-12-09T16:20:40.138Z,-3.70
2022-12-09T16:23:24.897Z,-3.70
2022-12-09T16:25:56.049Z,-3.70
2022-12-09T16:28:25.818Z,-3.70
2022-12-09T16:31:16.881Z,-3.80
2022-12-09T16:33:49.654Z,-3.80
2022-12-09T16:36:29.493Z,-3.80
2022-12-09T16:39:08.614Z,-3.80
2022-12-09T16:42:03.462Z,-3.90
2022-12-09T16:44:38.869Z,-3.90
2022-12-09T16:47:18.165Z,-3.90
2022-12-09T16:49:48.003Z,-3.90
2022-12-09T16:52:22.644Z,-4.00
2022-12-09T16:54:51.368Z,-4.00
2022-12-09T16:57:20.408Z,-4.00
2022-12-09T16:59:48.189Z,-4.00
2022-12-09T17:02:35.404Z,-4.00
2022-12-09T17:05:02.904Z,-4.00
2022-12-09T17:07:30.271Z,-4.00
2022-12-09T17:09:57.741Z,-4.00
2022-12-09T17:12:25.387Z,-4.10
2022-12-09T17:14:52.863Z,-4.00
2022-12-09T17:17:20.319Z,-4.10
2022-12-09T17:19:47.760Z,-4.10
2022-12-09T17:22:15.090Z,-4.20
2022-12-09T17:24:42.439Z,-4.20
2022-12-09T17:27:10.006Z,-4.20
2022-12-09T17:29:37.789Z,-4.30
2022-12-09T17:32:05.550Z,-4.30
2022-12-09T17:34:33.219Z,-4.30
2022-12-09T17:37:00.526Z,-4.30
2022-12-09T17:39:27.951Z,-4.30
2022-12-09T17:41:55.344Z,-4.30
2022-12-09T17:44:22.864Z,-4.30
2022-12-09T17:46:53.829Z,-4.40
2022-12-09T17:49:21.223Z,-4.40
2022-12-09T17:51:51.930Z,-4.50
2022-12-09T17:54:28.188Z,-4.50
2022-12-09T17:56:55.747Z,-4.50
2022-12-09T17:59:22.964Z,-4.60
2022-12-09T18:01:50.227Z,-4.60
2022-12-09T18:04:18.750Z,-4.60
2022-12-09T18:06:47.006Z,-4.60
2022-12-09T18:09:18.629Z,-4.60
2022-12-09T18:11:46.482Z,-4.60
2022-12-09T18:14:15.059Z,-4.70
2022-12-09T18:16:42.813Z,-4.80
2022-12-09T18:19:16.814Z,-4.80
2022-12-09T18:21:45.351Z,-4.80
2022-12-09T18:24:13.322Z,-4.80
2022-12-09T18:26:42.240Z,-4.90
2022-12-09T18:29:11.194Z,-4.90
2022-12-09T18:31:38.967Z,-4.90
2022-12-09T18:34:06.625Z,-5.00
2022-12-09T18:36:34.068Z,-4.90
2022-12-09T18:39:01.545Z,-5.00
2022-12-09T18:41:31.684Z,-5.00
2022-12-09T18:44:02.670Z,-5.00
2022-12-09T18:46:36.618Z,-5.00
2022-12-09T18:49:25.104Z,-4.90
2022-12-09T18:51:53.077Z,-5.00
2022-12-09T18:54:29.603Z,-5.00
2022-12-09T18:56:56.954Z,-4.90
2022-12-09T18:59:27.595Z,-4.90
2022-12-09T19:01:55.359Z,-4.90
2022-12-09T19:04:25.644Z,-4.90
2022-12-09T19:06:55.448Z,-5.00
2022-12-09T19:09:33.738Z,-5.10
2022-12-09T19:12:23.105Z,-5.10
2022-12-09T19:14:50.384Z,-5.00
2022-12-09T19:17:19.107Z,-5.10
2022-12-09T19:19:47.538Z,-5.10
2022-12-09T19:22:14.987Z,-5.20
2022-12-09T19:24:43.532Z,-5.20
2022-12-09T19:27:10.969Z,-5.20
2022-12-09T19:29:39.724Z,-5.20
2022-12-09T19:32:23.594Z,-5.30
2022-12-09T19:34:54.282Z,-5.40
2022-12-09T19:37:21.649Z,-5.50
2022-12-09T19:39:49.427Z,-5.50
2022-12-09T19:42:16.811Z,-5.60
2022-12-09T19:45:01.080Z,-5.60
2022-12-09T19:47:29.499Z,-5.60
2022-12-09T19:49:56.822Z,-5.60
2022-12-09T19:52:24.211Z,-5.60
2022-12-09T19:54:51.474Z,-5.60
2022-12-09T19:57:18.824Z,-5.60
2022-12-09T19:59:47.657Z,-5.60
2022-12-09T20:02:15.358Z,-5.60
2022-12-09T20:04:50.811Z,-5.60
2022-12-09T20:07:20.281Z,-5.60
2022-12-09T20:09:48.196Z,-5.70
2022-12-09T20:12:15.642Z,-5.80
2022-12-09T20:14:43.489Z,-5.80
2022-12-09T20:17:11.377Z,-5.90
2022-12-09T20:19:38.762Z,-5.90
2022-12-09T20:22:06.075Z,-5.90
2022-12-09T20:24:33.441Z,-5.90
2022-12-09T20:27:00.959Z,-6.00
2022-12-09T20:29:32.462Z,-6.00
2022-12-09T20:32:03.021Z,-6.00
2022-12-09T20:34:30.382Z,-6.00
2022-12-09T20:36:57.875Z,-6.10
2022-12-09T20:39:25.240Z,-6.10
2022-12-09T20:41:52.803Z,-6.10
2022-12-09T20:44:20.441Z,-6.10
2022-12-09T20:46:50.904Z,-6.20
2022-12-09T20:49:20.692Z,-6.30
2022-12-09T20:51:49.332Z,-6.40
2022-12-09T20:54:26.151Z,-6.30
2022-12-09T20:56:53.943Z,-6.40
2022-12-09T20:59:21.349Z,-6.40
2022-12-09T21:01:48.696Z,-6.40
2022-12-09T21:04:16.186Z,-6.30
2022-12-09T21:06:44.071Z,-6.30
2022-12-09T21:09:17.809Z,-6.30
2022-12-09T21:11:45.529Z,-6.30
2022-12-09T21:14:14.723Z,-6.30
2022-12-09T21:16:43.494Z,-6.30
2022-12-09T21:19:13.684Z,-6.30
2022-12-09T21:21:46.996Z,-6.40
2022-12-09T21:24:15.988Z,-6.30
2022-12-09T21:26:43.387Z,-6.30
2022-12-09T21:29:12.544Z,-6.40
2022-12-09T21:31:41.874Z,-6.40
2022-12-09T21:34:10.508Z,-6.40
2022-12-09T21:36:41.242Z,-6.40
2022-12-09T21:39:10.304Z,-6.40
2022-12-09T21:41:38.036Z,-6.40
2022-12-09T21:44:06.664Z,-6.40
2022-12-09T21:46:36.899Z,-6.40
2022-12-09T21:49:06.210Z,-6.50
2022-12-09T21:51:35.292Z,-6.50
2022-12-09T21:54:03.525Z,-6.50
2022-12-09T21:56:33.056Z,-6.50
2022-12-09T21:59:00.628Z,-6.50
2022-12-09T22:01:31.204Z,-6.60
2022-12-09T22:04:01.692Z,-6.60
2022-12-09T22:06:30.050Z,-6.60
2022-12-09T22:08:59.896Z,-6.60
2022-12-09T22:11:31.882Z,-6.60
2022-12-09T22:14:00.698Z,-6.70
2022-12-09T22:16:33.008Z,-6.70
2022-12-09T22:19:02.495Z,-6.70
2022-12-09T22:21:31.496Z,-6.70
2022-12-09T22:24:01.314Z,-6.80
2022-12-09T22:26:29.508Z,-6.80
2022-12-09T22:29:00.788Z,-6.90
2022-12-09T22:31:31.038Z,-6.90
2022-12-09T22:34:04.421Z,-7.00
2022-12-09T22:36:31.948Z,-7.00
2022-12-09T22:38:59.526Z,-7.10
2022-12-09T22:41:30.038Z,-7.10
2022-12-09T22:43:57.683Z,-7.10
2022-12-09T22:46:30.457Z,-7.10
2022-12-09T22:49:01.347Z,-7.10
2022-12-09T22:51:30.409Z,-7.10
2022-12-09T22:53:58.386Z,-7.20
2022-12-09T22:56:26.269Z,-7.20
2022-12-09T22:58:54.044Z,-7.20
2022-12-09T23:01:24.718Z,-7.20
2022-12-09T23:03:52.096Z,-7.30
2022-12-09T23:06:19.442Z,-7.30
2022-12-09T23:08:46.895Z,-7.40
2022-12-09T23:11:18.541Z,-7.40
2022-12-09T23:13:46.512Z,-7.40
2022-12-09T23:16:17.658Z,-7.40
2022-12-09T23:18:45.313Z,-7.50
2022-12-09T23:21:24.897Z,-7.50
2022-12-09T23:23:54.601Z,-7.50
2022-12-09T23:26:23.443Z,-7.50
2022-12-09T23:28:52.844Z,-7.50
2022-12-09T23:31:23.838Z,-7.50
2022-12-09T23:33:52.836Z,-7.50
2022-12-09T23:36:31.621Z,-7.60
2022-12-09T23:39:00.393Z,-7.60
2022-12-09T23:41:28.782Z,-7.60
2022-12-09T23:43:56.292Z,-7.60
2022-12-09T23:46:26.507Z,-7.70
2022-12-09T23:48:55.421Z,-7.80
2022-12-09T23:51:28.441Z,-7.80
2022-12-09T23:53:58.575Z,-7.90
2022-12-09T23:56:29.036Z,-7.90
2022-12-09T23:58:58.191Z,-8.00
